Time;durP1;ratioP1;P1;durP2;ratioP2;P2;SDS_P1;SDS_P2;PMS_P1;PMS_P2;Temp;Humidity;BMP_temperature;BMP_pressure;BME280_temperature;BME280_humidity;BME280_pressure;Samples;Min_cycle;Max_cycle;Signal;HPM_P1;HPM_P2
2021/10/06 00:00:32;;;;;;;16.73;10.30;;;;;;;6.20;77.75;102294.49;1728559;82;22116;-70
2021/10/06 00:03:02;;;;;;;13.98;10.43;;;;;;;6.20;77.77;102293.67;1731536;80;21065;-70
2021/10/06 00:05:31;;;;;;;13.10;9.05;;;;;;;6.19;77.81;102295.52;1729684;81;21099;-71
2021/10/06 00:08:10;;;;;;;16.30;10.63;;;;;;;6.18;77.87;102293.84;1752049;80;21086;-70
2021/10/06 00:10:41;;;;;;;13.50;9.83;;;;;;;6.15;77.88;102298.70;1756626;80;21092;-70
2021/10/06 00:13:12;;;;;;;15.23;10.50;;;;;;;6.11;77.92;102295.59;1727832;81;21132;-70
2021/10/06 00:15:45;;;;;;;15.80;10.08;;;;;;;6.08;77.99;102294.13;1724481;81;21061;-72
2021/10/06 00:18:25;;;;;;;14.03;9.95;;;;;;;6.08;77.98;102294.63;1726627;81;21112;-71
2021/10/06 00:21:10;;;;;;;15.15;10.60;;;;;;;6.05;77.98;102291.02;1698823;81;21020;-70
2021/10/06 00:23:38;;;;;;;17.00;10.65;;;;;;;6.00;78.03;102289.44;1750428;80;21952;-72
2021/10/06 00:26:06;;;;;;;16.95;11.10;;;;;;;5.97;78.24;102290.63;1757506;80;21095;-71
2021/10/06 00:28:34;;;;;;;16.57;9.95;;;;;;;5.94;78.38;102299.45;1739357;81;21010;-71
2021/10/06 00:31:00;;;;;;;16.70;10.50;;;;;;;5.93;78.59;102291.19;1743725;81;21197;-72
2021/10/06 00:33:27;;;;;;;17.05;10.53;;;;;;;5.93;78.57;102298.64;1728841;81;21041;-73
2021/10/06 00:35:54;;;;;;;18.95;10.90;;;;;;;5.91;78.72;102300.61;1729804;81;21093;-70
2021/10/06 00:38:22;;;;;;;17.95;10.88;;;;;;;5.87;78.87;102304.13;1738797;80;21057;-70
2021/10/06 00:40:49;;;;;;;17.45;11.03;;;;;;;5.85;79.02;102302.66;1736758;80;21571;-70
2021/10/06 00:43:16;;;;;;;13.43;9.53;;;;;;;5.82;79.18;102297.24;1739182;80;21123;-69
2021/10/06 00:45:43;;;;;;;16.67;10.05;;;;;;;5.83;79.34;102294.90;1738744;80;20993;-69
2021/10/06 00:48:10;;;;;;;14.75;10.05;;;;;;;5.80;79.41;102289.14;1738654;80;21036;-70
2021/10/06 00:50:37;;;;;;;14.07;10.53;;;;;;;5.76;79.60;102291.34;1739212;80;21539;-70
2021/10/06 00:53:07;;;;;;;16.17;9.60;;;;;;;5.77;79.84;102289.50;1734652;80;21061;-69
2021/10/06 00:55:36;;;;;;;18.60;11.08;;;;;;;5.78;79.94;102292.47;1739945;80;21177;-70
2021/10/06 00:58:04;;;;;;;13.20;9.23;;;;;;;5.79;80.04;102300.25;1722330;80;21544;-70
2021/10/06 01:00:30;;;;;;;13.70;9.68;;;;;;;5.80;80.14;102299.23;1739067;80;21159;-70
2021/10/06 01:02:57;;;;;;;14.45;9.85;;;;;;;5.82;80.35;102299.05;1736256;81;21060;-70
2021/10/06 01:05:24;;;;;;;15.72;10.32;;;;;;;5.81;80.55;102302.70;1737134;80;21048;-70
2021/10/06 01:07:50;;;;;;;16.90;10.10;;;;;;;5.80;80.77;102303.72;1738818;82;21100;-70
2021/10/06 01:10:17;;;;;;;13.35;9.65;;;;;;;5.78;80.89;102301.23;1726635;81;21028;-70
2021/10/06 01:12:45;;;;;;;16.75;10.80;;;;;;;5.80;80.89;102295.27;1720249;82;21132;-69
2021/10/06 01:15:13;;;;;;;14.43;10.70;;;;;;;5.81;80.78;102300.05;1734718;80;21045;-69
2021/10/06 01:17:40;;;;;;;15.00;10.50;;;;;;;5.78;80.79;102299.91;1737987;80;20978;-69
2021/10/06 01:20:10;;;;;;;17.55;9.88;;;;;;;5.74;80.71;102301.29;1738445;80;21144;-68
2021/10/06 01:22:36;;;;;;;14.10;9.73;;;;;;;5.71;80.73;102297.67;1738206;80;21048;-69
2021/10/06 01:25:05;;;;;;;13.32;10.10;;;;;;;5.69;80.80;102303.65;1738387;80;21092;-69
2021/10/06 01:27:36;;;;;;;13.22;9.90;;;;;;;5.68;80.90;102299.36;1737545;80;21062;-69
2021/10/06 01:30:06;;;;;;;13.85;10.03;;;;;;;5.64;81.00;102298.09;1736552;80;21076;-70
2021/10/06 01:32:37;;;;;;;14.65;10.50;;;;;;;5.61;81.11;102298.44;1730272;82;21584;-70
2021/10/06 01:35:07;;;;;;;12.85;9.23;;;;;;;5.59;81.22;102295.14;1727487;80;21045;-70
2021/10/06 01:37:34;;;;;;;14.60;9.38;;;;;;;5.60;81.27;102291.50;1729756;80;21668;-69
2021/10/06 01:40:04;;;;;;;14.05;9.70;;;;;;;5.59;81.37;102292.48;1735726;80;21022;-70
2021/10/06 01:42:32;;;;;;;15.15;9.28;;;;;;;5.56;81.50;102297.67;1739153;80;21074;-71
2021/10/06 01:44:59;;;;;;;14.87;9.90;;;;;;;5.54;81.66;102297.52;1738902;80;21779;-70
2021/10/06 01:47:26;;;;;;;14.38;9.10;;;;;;;5.51;81.78;102307.16;1733611;80;21354;-69
2021/10/06 01:49:54;;;;;;;12.45;8.85;;;;;;;5.51;81.89;102311.13;1738513;80;21606;-70
2021/10/06 01:52:23;;;;;;;13.28;9.43;;;;;;;5.49;81.97;102313.95;1728868;80;21076;-69
2021/10/06 01:54:52;;;;;;;13.15;9.10;;;;;;;5.46;82.05;102309.00;1739259;80;21568;-69
2021/10/06 01:57:19;;;;;;;13.40;9.30;;;;;;;5.44;82.09;102310.22;1735185;80;21543;-69
2021/10/06 01:59:46;;;;;;;15.55;9.13;;;;;;;5.40;82.17;102309.24;1738177;80;21026;-70
2021/10/06 02:02:14;;;;;;;13.35;9.40;;;;;;;5.37;82.22;102310.11;1737319;80;21591;-69
2021/10/06 02:04:41;;;;;;;14.47;9.95;;;;;;;5.35;82.39;102311.59;1738049;80;21050;-69
2021/10/06 02:07:09;;;;;;;13.80;9.75;;;;;;;5.30;82.48;102311.33;1737539;80;21138;-70
2021/10/06 02:09:36;;;;;;;13.53;8.83;;;;;;;5.28;82.56;102311.17;1724941;80;21815;-70
2021/10/06 02:12:02;;;;;;;13.08;10.00;;;;;;;5.25;82.56;102307.05;1737615;80;21124;-70
2021/10/06 02:14:30;;;;;;;13.25;9.63;;;;;;;5.24;82.65;102316.01;1738694;80;21076;-70
2021/10/06 02:16:56;;;;;;;12.33;8.88;;;;;;;5.23;82.74;102320.14;1737316;80;21069;-70
2021/10/06 02:19:23;;;;;;;14.70;9.68;;;;;;;5.22;82.84;102315.86;1737986;80;21041;-70
2021/10/06 02:21:50;;;;;;;14.50;10.15;;;;;;;5.21;82.96;102327.47;1737888;80;21839;-69
2021/10/06 02:24:17;;;;;;;14.28;9.20;;;;;;;5.17;83.06;102321.19;1736126;80;21053;-70
2021/10/06 02:26:43;;;;;;;13.50;8.83;;;;;;;5.17;83.15;102323.84;1731453;80;21100;-70
2021/10/06 02:29:10;;;;;;;13.05;9.33;;;;;;;5.14;83.29;102327.34;1740232;80;21093;-70
2021/10/06 02:31:36;;;;;;;12.35;8.88;;;;;;;5.11;83.46;102329.03;1738284;80;21544;-70
2021/10/06 02:34:03;;;;;;;12.47;9.05;;;;;;;5.10;83.67;102336.16;1740072;81;21088;-70
2021/10/06 02:36:29;;;;;;;16.65;10.13;;;;;;;5.11;83.80;102333.00;1750000;80;21039;-70
2021/10/06 02:38:56;;;;;;;14.00;8.85;;;;;;;5.13;83.84;102330.50;1741619;81;21000;-70
2021/10/06 02:41:22;;;;;;;15.15;9.75;;;;;;;5.14;83.89;102327.34;1746715;80;21640;-70
2021/10/06 02:43:49;;;;;;;13.45;8.70;;;;;;;5.15;83.92;102337.75;1728877;81;21580;-70
2021/10/06 02:46:15;;;;;;;11.65;8.50;;;;;;;5.12;83.98;102334.13;1729863;81;21316;-70
2021/10/06 02:48:42;;;;;;;13.85;9.05;;;;;;;5.07;84.01;102340.98;1754811;80;21011;-70
2021/10/06 02:51:09;;;;;;;12.07;8.68;;;;;;;5.05;84.08;102346.94;1729017;81;21081;-70
2021/10/06 02:53:35;;;;;;;12.05;9.10;;;;;;;5.02;84.18;102347.30;1738544;82;21038;-69
2021/10/06 02:56:02;;;;;;;11.83;8.58;;;;;;;5.00;84.24;102347.95;1739049;80;21267;-70
2021/10/06 02:58:28;;;;;;;12.47;9.05;;;;;;;4.94;84.41;102351.66;1739001;82;21768;-69
2021/10/06 03:00:55;;;;;;;13.78;9.00;;;;;;;4.92;84.50;102355.47;1738960;81;21059;-71
2021/10/06 03:03:22;;;;;;;12.07;8.25;;;;;;;4.90;84.60;102360.10;1712437;82;21053;-70
2021/10/06 03:05:48;;;;;;;10.85;7.58;;;;;;;4.88;84.67;102362.94;1732886;81;21251;-71
2021/10/06 03:08:15;;;;;;;12.75;8.83;;;;;;;4.86;84.74;102366.25;1739378;80;21061;-70
2021/10/06 03:10:41;;;;;;;12.53;9.00;;;;;;;4.86;84.79;102362.78;1748583;80;21815;-70
2021/10/06 03:13:09;;;;;;;11.65;8.38;;;;;;;4.83;84.84;102360.48;1737873;80;21839;-70
2021/10/06 03:15:35;;;;;;;15.15;9.50;;;;;;;4.81;84.92;102366.47;1738616;80;21363;-69
2021/10/06 03:18:02;;;;;;;13.72;9.03;;;;;;;4.79;85.00;102374.56;1741386;80;21041;-71
2021/10/06 03:20:28;;;;;;;14.30;9.90;;;;;;;4.82;85.10;102377.38;1726821;80;21607;-71
2021/10/06 03:22:55;;;;;;;12.45;9.55;;;;;;;4.86;85.11;102384.78;1734342;81;21088;-69
2021/10/06 03:25:22;;;;;;;13.18;9.15;;;;;;;4.88;85.16;102383.30;1751350;80;21011;-68
2021/10/06 03:27:50;;;;;;;14.63;9.53;;;;;;;4.90;85.15;102379.48;1730358;81;21057;-70
2021/10/06 03:30:18;;;;;;;14.43;9.35;;;;;;;4.90;85.07;102378.16;1740880;81;20991;-69
2021/10/06 03:32:45;;;;;;;12.82;9.45;;;;;;;4.92;85.04;102376.65;1734189;81;21097;-69
2021/10/06 03:35:12;;;;;;;12.85;8.83;;;;;;;4.90;85.08;102379.95;1719036;80;21291;-70
2021/10/06 03:37:39;;;;;;;12.58;8.63;;;;;;;4.85;85.19;102380.49;1747195;80;21552;-70
2021/10/06 03:40:08;;;;;;;13.15;9.03;;;;;;;4.80;85.31;102386.80;1737700;81;21049;-70
2021/10/06 03:42:35;;;;;;;13.90;9.10;;;;;;;4.73;85.46;102388.49;1736860;80;20994;-70
2021/10/06 03:45:05;;;;;;;12.70;9.03;;;;;;;4.72;85.62;102381.55;1741213;81;21055;-70
2021/10/06 03:47:32;;;;;;;12.25;8.95;;;;;;;4.74;85.77;102390.64;1738666;80;21860;-70
2021/10/06 03:49:58;;;;;;;12.63;8.40;;;;;;;4.75;85.84;102387.02;1725982;81;21070;-71
2021/10/06 03:52:25;;;;;;;12.98;9.08;;;;;;;4.74;85.95;102386.19;1739602;80;21059;-70
2021/10/06 03:54:52;;;;;;;14.78;9.70;;;;;;;4.72;86.10;102380.73;1741049;80;21619;-70
2021/10/06 03:57:19;;;;;;;12.95;8.10;;;;;;;4.73;86.18;102382.37;1740620;81;21089;-71
2021/10/06 03:59:45;;;;;;;12.03;8.85;;;;;;;4.75;86.25;102383.86;1734753;81;21095;-70
2021/10/06 04:02:12;;;;;;;13.45;9.18;;;;;;;4.77;86.32;102379.70;1740409;80;21080;-71
2021/10/06 04:04:38;;;;;;;14.78;8.68;;;;;;;4.79;86.40;102382.51;1736365;81;21147;-71
2021/10/06 04:07:05;;;;;;;16.10;9.85;;;;;;;4.82;86.46;102378.70;1735535;81;21081;-71
2021/10/06 04:09:33;;;;;;;11.95;8.95;;;;;;;4.82;86.50;102384.81;1740053;80;21575;-70
2021/10/06 04:12:00;;;;;;;14.33;9.43;;;;;;;4.87;86.48;102389.57;1730410;80;22091;-71
2021/10/06 04:14:26;;;;;;;10.48;8.33;;;;;;;4.87;86.47;102397.05;1736783;82;21064;-71
2021/10/06 04:16:53;;;;;;;11.80;8.30;;;;;;;4.87;86.53;102401.02;1736937;81;21582;-71
2021/10/06 04:19:19;;;;;;;13.85;8.63;;;;;;;4.84;86.52;102400.03;1735317;80;21065;-71
2021/10/06 04:21:46;;;;;;;11.88;8.70;;;;;;;4.82;86.59;102403.84;1736960;80;21575;-71
2021/10/06 04:24:12;;;;;;;12.70;9.00;;;;;;;4.79;86.61;102406.33;1731993;81;21138;-70
2021/10/06 04:26:39;;;;;;;15.90;9.00;;;;;;;4.81;86.71;102413.61;1741385;80;21109;-70
2021/10/06 04:29:06;;;;;;;10.98;8.53;;;;;;;4.81;86.78;102410.15;1734226;80;21304;-70
2021/10/06 04:31:32;;;;;;;16.17;9.43;;;;;;;4.81;86.89;102412.80;1738194;80;21017;-70
2021/10/06 04:33:59;;;;;;;13.30;8.50;;;;;;;4.80;87.00;102414.59;1753705;80;21043;-70
2021/10/06 04:36:26;;;;;;;11.75;7.80;;;;;;;4.80;87.15;102410.62;1724315;81;21634;-69
2021/10/06 04:39:01;;;;;;;11.88;8.58;;;;;;;4.80;87.36;102418.56;1748300;80;21081;-70
2021/10/06 04:41:30;;;;;;;14.23;8.53;;;;;;;4.84;87.55;102413.27;1759174;80;21074;-70
2021/10/06 04:43:58;;;;;;;12.85;8.55;;;;;;;4.87;87.77;102416.90;1724022;81;21060;-70
2021/10/06 04:46:27;;;;;;;12.85;7.95;;;;;;;4.94;87.94;102418.36;1747417;80;21151;-70
2021/10/06 04:48:54;;;;;;;12.98;8.60;;;;;;;5.01;88.08;102423.27;1755262;80;21093;-71
2021/10/06 04:51:21;;;;;;;12.37;8.90;;;;;;;5.06;88.24;102418.77;1756064;80;21073;-69
2021/10/06 04:53:51;;;;;;;11.45;8.80;;;;;;;5.09;88.40;102423.72;1716989;80;21101;-69
2021/10/06 04:56:18;;;;;;;13.43;8.20;;;;;;;5.13;88.48;102425.86;1732191;80;21555;-69
2021/10/06 04:58:46;;;;;;;11.65;7.95;;;;;;;5.21;88.49;102425.48;1744759;80;21056;-70
2021/10/06 05:01:12;;;;;;;13.22;9.20;;;;;;;5.27;88.52;102426.11;1741350;80;21191;-70
2021/10/06 05:03:40;;;;;;;12.93;8.53;;;;;;;5.33;88.53;102426.23;1731936;80;21059;-70
2021/10/06 05:06:07;;;;;;;14.38;8.50;;;;;;;5.40;88.53;102429.81;1739328;81;21120;-71
2021/10/06 05:08:34;;;;;;;12.43;8.23;;;;;;;5.48;88.55;102427.60;1738545;80;21045;-71
2021/10/06 05:11:00;;;;;;;10.23;7.35;;;;;;;5.57;88.54;102433.67;1737518;80;21064;-71
2021/10/06 05:13:27;;;;;;;14.63;8.85;;;;;;;5.64;88.52;102430.63;1750612;80;21825;-71
2021/10/06 05:16:01;;;;;;;11.40;7.97;;;;;;;5.72;88.47;102437.18;1752428;80;21797;-70
2021/10/06 05:18:40;;;;;;;10.82;7.15;;;;;;;5.80;88.37;102429.17;1700329;81;21096;-71
2021/10/06 05:21:18;;;;;;;11.18;7.90;;;;;;;5.91;88.30;102427.91;1747575;80;21021;-72
2021/10/06 05:23:49;;;;;;;11.35;8.18;;;;;;;5.99;88.18;102427.88;1729367;81;21132;-72
2021/10/06 05:26:27;;;;;;;11.80;7.70;;;;;;;6.08;88.11;102429.93;1707305;82;21384;-68
2021/10/06 05:28:58;;;;;;;10.43;8.20;;;;;;;6.20;87.97;102439.10;1732699;80;21041;-71
2021/10/06 05:31:24;;;;;;;11.35;8.68;;;;;;;6.29;87.76;102428.73;1735799;80;21131;-70
2021/10/06 05:33:51;;;;;;;12.43;9.08;;;;;;;6.41;87.60;102432.24;1731697;80;21013;-70
2021/10/06 05:36:18;;;;;;;12.98;8.80;;;;;;;6.50;87.47;102437.28;1735008;80;21148;-70
2021/10/06 05:38:45;;;;;;;12.63;8.85;;;;;;;6.62;87.33;102435.50;1729311;80;21143;-71
2021/10/06 05:41:12;;;;;;;13.48;8.95;;;;;;;6.74;87.11;102436.66;1728092;80;21565;-71
2021/10/06 05:43:39;;;;;;;13.28;9.08;;;;;;;6.87;86.89;102434.17;1737169;80;21057;-71
2021/10/06 05:46:06;;;;;;;12.55;8.63;;;;;;;6.99;86.58;102433.20;1719684;81;21030;-70
2021/10/06 05:48:33;;;;;;;11.48;9.05;;;;;;;7.07;86.25;102434.91;1708053;82;21088;-70
2021/10/06 05:51:00;;;;;;;11.25;9.03;;;;;;;7.12;85.89;102433.34;1732193;80;22163;-70
2021/10/06 05:53:28;;;;;;;11.30;9.83;;;;;;;7.21;85.66;102434.88;1732215;81;21062;-71
2021/10/06 05:55:55;;;;;;;12.45;9.35;;;;;;;7.33;85.58;102438.36;1728438;81;21068;-70
2021/10/06 05:58:23;;;;;;;13.62;10.58;;;;;;;7.43;85.30;102438.35;1738043;80;21050;-70
2021/10/06 06:00:51;;;;;;;16.80;12.10;;;;;;;7.54;85.08;102437.05;1736083;81;21120;-70
2021/10/06 06:03:18;;;;;;;12.40;11.10;;;;;;;7.66;84.83;102443.48;1734905;81;21219;-71
2021/10/06 06:05:45;;;;;;;13.48;11.05;;;;;;;7.79;84.64;102439.29;1735361;80;21091;-71
2021/10/06 06:08:12;;;;;;;14.30;11.25;;;;;;;7.91;84.46;102439.91;1736156;80;21075;-72
2021/10/06 06:10:41;;;;;;;16.10;11.35;;;;;;;8.05;84.28;102432.03;1740155;80;21579;-70
2021/10/06 06:13:07;;;;;;;15.30;11.10;;;;;;;8.18;83.87;102438.25;1738422;80;21681;-70
2021/10/06 06:15:34;;;;;;;11.48;9.15;;;;;;;8.29;83.54;102442.72;1728926;80;21656;-70
2021/10/06 06:18:01;;;;;;;13.38;10.18;;;;;;;8.42;83.26;102441.02;1727256;81;21126;-71
2021/10/06 06:20:28;;;;;;;11.97;8.98;;;;;;;8.56;82.85;102446.41;1736658;80;21050;-72
2021/10/06 06:22:55;;;;;;;14.15;9.65;;;;;;;8.67;82.20;102437.85;1745770;80;20987;-73
2021/10/06 06:25:22;;;;;;;11.53;9.00;;;;;;;8.74;81.81;102443.21;1765098;80;21803;-71
2021/10/06 06:27:49;;;;;;;14.35;8.58;;;;;;;8.86;81.51;102446.95;1738589;80;21532;-72
2021/10/06 06:30:16;;;;;;;10.60;7.83;;;;;;;8.96;81.14;102443.41;1736699;81;20986;-72
2021/10/06 06:32:44;;;;;;;11.70;7.58;;;;;;;9.03;80.55;102438.09;1737877;80;21048;-72
2021/10/06 06:35:11;;;;;;;9.00;6.72;;;;;;;9.10;80.29;102438.94;1741198;80;21640;-74
2021/10/06 06:37:38;;;;;;;8.48;6.87;;;;;;;9.18;79.90;102447.25;1739597;80;21069;-72
2021/10/06 06:40:07;;;;;;;9.28;6.92;;;;;;;9.27;79.67;102452.20;1736657;80;21602;-72
2021/10/06 06:42:35;;;;;;;10.20;7.85;;;;;;;9.40;79.42;102455.41;1733167;80;21084;-72
2021/10/06 06:45:03;;;;;;;9.10;7.00;;;;;;;9.51;79.23;102445.50;1727822;80;21032;-71
2021/10/06 06:47:32;;;;;;;9.85;7.33;;;;;;;9.64;78.91;102448.69;1731752;80;21704;-73
2021/10/06 06:49:58;;;;;;;10.78;7.20;;;;;;;9.75;78.27;102448.59;1708944;80;21105;-73
2021/10/06 06:52:25;;;;;;;11.83;7.95;;;;;;;9.83;77.77;102447.85;1731117;80;21860;-74
2021/10/06 06:54:52;;;;;;;11.68;7.20;;;;;;;9.89;77.56;102444.88;1741034;80;21060;-73
2021/10/06 06:57:18;;;;;;;12.25;8.13;;;;;;;9.99;77.35;102435.94;1737552;80;21190;-73
2021/10/06 06:59:45;;;;;;;9.30;7.40;;;;;;;10.11;76.96;102433.47;1736954;80;21069;-73
2021/10/06 07:02:13;;;;;;;9.65;6.87;;;;;;;10.26;76.71;102431.92;1737772;80;21060;-75
2021/10/06 07:04:41;;;;;;;10.50;7.95;;;;;;;10.41;76.23;102434.38;1737715;80;21140;-75
2021/10/06 07:07:12;;;;;;;11.43;7.45;;;;;;;10.49;75.62;102434.95;1738012;80;21133;-72
2021/10/06 07:09:45;;;;;;;11.10;8.15;;;;;;;10.55;75.10;102427.42;1738105;80;21081;-73
2021/10/06 07:12:06;;;;;;;12.10;7.28;;;;;;;10.67;74.63;102428.12;1738357;80;21081;-72
2021/10/06 07:14:32;;;;;;;10.10;7.37;;;;;;;10.80;74.15;102428.06;1754126;80;21361;-72
2021/10/06 07:16:59;;;;;;;10.37;7.53;;;;;;;10.91;73.72;102432.73;1752393;80;21783;-73
2021/10/06 07:19:26;;;;;;;8.60;6.80;;;;;;;11.04;73.45;102431.33;1727543;81;21295;-71
2021/10/06 07:21:52;;;;;;;10.40;6.97;;;;;;;11.17;72.46;102438.98;1757851;80;21335;-72
2021/10/06 07:24:21;;;;;;;10.77;6.80;;;;;;;11.23;72.07;102432.78;1736750;80;21379;-70
2021/10/06 07:26:48;;;;;;;9.83;7.33;;;;;;;11.28;71.63;102428.92;1739070;80;21312;-70
2021/10/06 07:29:15;;;;;;;9.23;6.80;;;;;;;11.34;71.02;102432.08;1734660;80;21767;-73
2021/10/06 07:31:42;;;;;;;10.10;7.87;;;;;;;11.38;70.29;102427.93;1732408;80;21565;-73
2021/10/06 07:34:09;;;;;;;10.27;7.13;;;;;;;11.41;70.11;102424.82;1752789;80;21342;-71
2021/10/06 07:36:36;;;;;;;8.77;6.77;;;;;;;11.49;69.96;102425.09;1716245;81;21189;-72
2021/10/06 07:39:05;;;;;;;9.10;6.30;;;;;;;11.58;69.73;102418.45;1727245;81;21311;-72
2021/10/06 07:41:31;;;;;;;7.57;5.83;;;;;;;11.74;69.39;102419.21;1726000;81;21575;-72
2021/10/06 07:44:00;;;;;;;9.07;6.33;;;;;;;11.92;68.63;102417.67;1729911;81;21207;-71
2021/10/06 07:46:27;;;;;;;8.63;6.43;;;;;;;12.03;68.04;102406.75;1730155;81;21172;-71
2021/10/06 07:48:54;;;;;;;8.73;6.60;;;;;;;12.12;67.73;102415.61;1723575;81;21255;-71
2021/10/06 07:51:20;;;;;;;9.30;6.53;;;;;;;12.25;67.34;102411.17;1729340;81;21161;-70
2021/10/06 07:53:48;;;;;;;9.87;6.60;;;;;;;12.39;66.54;102413.46;1730561;81;21730;-71
2021/10/06 07:56:15;;;;;;;7.53;6.13;;;;;;;12.52;66.27;102411.68;1751188;80;21530;-70
2021/10/06 07:58:42;;;;;;;7.40;5.70;;;;;;;12.66;65.53;102407.26;1749079;80;21371;-71
2021/10/06 08:01:09;;;;;;;7.50;5.50;;;;;;;12.80;63.83;102407.94;1737440;80;21339;-71
2021/10/06 08:03:36;;;;;;;7.57;6.03;;;;;;;12.82;63.24;102403.67;1736060;80;21306;-71
2021/10/06 08:06:03;;;;;;;8.80;5.93;;;;;;;12.88;63.09;102404.11;1737697;80;21502;-72
2021/10/06 08:08:30;;;;;;;10.03;6.53;;;;;;;12.95;62.50;102402.67;1738858;80;21326;-70
2021/10/06 08:11:00;;;;;;;8.97;6.03;;;;;;;13.00;62.16;102397.46;1738062;81;21264;-71
2021/10/06 08:13:27;;;;;;;8.93;6.10;;;;;;;13.09;62.06;102396.88;1737185;81;21291;-72
2021/10/06 08:15:54;;;;;;;8.83;5.97;;;;;;;13.19;60.75;102397.67;1738160;81;21374;-71
2021/10/06 08:18:20;;;;;;;8.97;6.00;;;;;;;13.25;60.36;102400.00;1737315;80;21595;-71
2021/10/06 08:20:48;;;;;;;8.47;6.07;;;;;;;13.27;59.44;102402.75;1737210;81;21810;-71
2021/10/06 08:23:20;;;;;;;10.57;6.37;;;;;;;13.31;58.85;102397.22;1732889;81;21642;-71
2021/10/06 08:25:45;;;;;;;10.10;5.60;;;;;;;13.32;58.47;102388.11;1734855;81;21325;-72
2021/10/06 08:28:12;;;;;;;7.40;5.13;;;;;;;13.31;57.69;102393.19;1733208;80;21452;-70
2021/10/06 08:30:38;;;;;;;6.43;5.17;;;;;;;13.42;57.41;102392.09;1736560;80;21292;-72
2021/10/06 08:33:07;;;;;;;7.33;4.60;;;;;;;13.42;57.41;102392.09;1735361;81;21475;-71
2021/10/06 08:35:34;;;;;;;6.83;4.80;;;;;;;13.49;56.50;102386.94;1736834;82;21506;-70
2021/10/06 08:38:03;;;;;;;6.50;4.90;;;;;;;13.51;55.81;102384.81;1737793;81;21961;-71
2021/10/06 08:40:34;;;;;;;6.90;5.10;;;;;;;13.57;55.60;102387.92;1711743;81;21540;-71
2021/10/06 08:43:02;;;;;;;6.83;5.37;;;;;;;13.67;55.60;102389.22;1752585;80;21538;-70
2021/10/06 08:45:30;;;;;;;5.47;4.77;;;;;;;13.76;55.27;102392.67;1724680;81;21879;-70
2021/10/06 08:47:58;;;;;;;6.50;4.73;;;;;;;13.75;52.70;102391.55;1750791;80;21492;-70
2021/10/06 08:50:26;;;;;;;8.27;4.83;;;;;;;13.78;53.42;102385.70;1729133;81;21589;-70
2021/10/06 08:52:55;;;;;;;7.77;4.77;;;;;;;13.78;53.42;102385.70;1743790;81;21455;-72
2021/10/06 08:55:28;;;;;;;10.15;4.62;;;;;;;13.83;52.64;102392.02;1751552;80;22018;-69
2021/10/06 08:58:03;;;;;;;9.17;5.20;;;;;;;13.96;52.76;102386.13;1753507;81;21019;-72
2021/10/06 09:00:57;;;;;;;8.03;5.07;;;;;;;14.15;51.11;102381.41;1729374;81;21512;-72
2021/10/06 09:03:34;;;;;;;;;;;;;;;14.15;51.11;102381.41;1753554;80;21859;-71
2021/10/06 09:06:09;;;;;;;;;;;;;;;14.21;51.42;102390.69;1748899;80;20232;-72
2021/10/06 09:08:43;;;;;;;7.97;4.23;;;;;;;14.38;49.63;102390.80;1725605;81;21136;-69
2021/10/06 09:11:17;;;;;;;5.87;4.20;;;;;;;14.43;49.47;102388.73;1731781;83;21574;-70
2021/10/06 09:14:05;;;;;;;6.20;4.60;;;;;;;14.43;49.47;102388.73;1703628;82;21579;-70
2021/10/06 09:16:32;;;;;;;7.00;4.93;;;;;;;14.47;50.52;102388.01;1697517;83;21476;-71
2021/10/06 09:19:01;;;;;;;8.63;4.70;;;;;;;14.47;50.33;102379.95;1755260;81;22963;-74
2021/10/06 09:21:29;;;;;;;7.03;4.80;;;;;;;14.47;50.33;102379.95;1748749;81;21879;-71
2021/10/06 09:24:00;;;;;;;8.50;4.73;;;;;;;14.50;50.17;102381.34;1670253;84;21724;-71
2021/10/06 09:26:29;;;;;;;8.10;5.00;;;;;;;14.51;48.51;102393.75;1719168;81;22136;-71
2021/10/06 09:28:58;;;;;;;8.47;5.00;;;;;;;14.46;48.81;102382.88;1759564;80;21674;-70
2021/10/06 09:31:29;;;;;;;7.53;4.97;;;;;;;14.49;50.10;102389.94;1748186;80;23168;-71
2021/10/06 09:33:58;;;;;;;7.67;4.77;;;;;;;14.63;49.52;102379.75;1726050;81;22308;-71
2021/10/06 09:36:35;;;;;;;9.50;5.17;;;;;;;14.82;47.81;102372.85;1756171;80;22221;-70
2021/10/06 09:39:10;;;;;;;8.30;4.67;;;;;;;14.82;47.81;102372.85;1762126;80;21720;-72
2021/10/06 09:41:44;;;;;;;8.73;4.03;;;;;;;14.75;45.15;102379.72;1774099;80;22210;-71
2021/10/06 09:44:31;;;;;;;7.53;4.40;;;;;;;14.58;45.64;102373.45;1750999;80;21897;-71
2021/10/06 09:47:05;;;;;;;9.18;4.30;;;;;;;14.52;45.95;102384.12;1758610;80;21844;-69
2021/10/06 09:49:40;;;;;;;8.27;3.80;;;;;;;14.68;45.58;102380.40;1728752;81;21069;-75
2021/10/06 09:52:25;;;;;;;5.27;3.50;;;;;;;14.87;45.21;102381.84;1729690;81;22339;-75
2021/10/06 09:55:10;;;;;;;6.40;3.73;;;;;;;15.08;45.53;102383.02;1738163;82;21735;-70
2021/10/06 09:57:40;;;;;;;7.53;4.30;;;;;;;15.31;44.84;102373.98;1758086;80;21761;-72
2021/10/06 10:00:17;;;;;;;8.73;4.33;;;;;;;15.50;44.56;102373.22;1759512;81;21737;-70
2021/10/06 10:02:49;;;;;;;7.23;3.97;;;;;;;15.65;44.15;102368.58;1746821;81;21689;-72
2021/10/06 10:05:25;;;;;;;5.07;3.97;;;;;;;15.66;43.67;102368.86;1756967;80;21694;-72
2021/10/06 10:08:08;;;;;;;6.20;3.40;;;;;;;15.68;43.88;102366.23;1718130;82;21672;-69
2021/10/06 10:10:49;;;;;;;5.03;3.40;;;;;;;15.85;43.42;102360.81;1709655;84;21216;-70
2021/10/06 10:13:23;;;;;;;8.73;3.87;;;;;;;16.06;42.51;102355.19;1733408;81;21157;-71
2021/10/06 10:16:12;;;;;;;6.97;3.70;;;;;;;16.14;42.35;102362.02;1732006;81;21568;-71
2021/10/06 10:18:50;;;;;;;7.07;3.80;;;;;;;16.07;41.97;102352.77;1725191;81;21068;-70
2021/10/06 10:21:24;;;;;;;6.67;3.80;;;;;;;15.90;41.62;102350.12;1688565;81;21060;-70
2021/10/06 10:24:24;;;;;;;6.43;3.23;;;;;;;15.78;42.12;102363.41;1705636;81;21053;-70
2021/10/06 10:27:10;;;;;;;6.10;2.80;;;;;;;15.77;41.22;102367.99;1728797;81;21116;-71
2021/10/06 10:29:47;;;;;;;6.03;3.20;;;;;;;15.89;39.26;102362.48;1708366;82;21573;-69
2021/10/06 10:32:33;;;;;;;4.93;2.80;;;;;;;16.03;39.39;102358.92;1725602;81;21089;-70
2021/10/06 10:35:10;;;;;;;7.10;3.47;;;;;;;16.03;39.24;102359.73;1734088;82;21064;-70
2021/10/06 10:37:54;;;;;;;5.67;3.17;;;;;;;15.88;39.80;102360.33;1730105;81;21001;-71
2021/10/06 10:40:43;;;;;;;6.13;3.70;;;;;;;15.80;40.71;102365.34;1733569;81;21534;-71
2021/10/06 10:43:20;;;;;;;5.17;3.30;;;;;;;15.74;40.85;102370.37;1722401;81;21358;-70
2021/10/06 10:46:11;;;;;;;4.97;3.30;;;;;;;15.67;40.92;102363.27;1727952;81;21084;-69
2021/10/06 10:49:03;;;;;;;5.10;3.30;;;;;;;15.72;41.26;102359.83;1733179;82;21057;-71
2021/10/06 10:51:46;;;;;;;5.90;3.53;;;;;;;15.78;41.21;102355.33;1730053;81;21036;-70
2021/10/06 10:54:33;;;;;;;4.53;3.23;;;;;;;15.76;40.83;102360.14;1722908;81;21144;-69
2021/10/06 10:57:23;;;;;;;5.87;3.50;;;;;;;15.70;41.34;102359.27;1718663;81;21591;-70
2021/10/06 10:59:51;;;;;;;4.90;3.20;;;;;;;15.67;41.51;102355.19;1730587;81;21062;-69
2021/10/06 11:02:24;;;;;;;6.27;3.30;;;;;;;15.65;41.27;102351.87;1735654;81;21818;-71
2021/10/06 11:04:57;;;;;;;6.12;3.52;;;;;;;15.58;41.21;102354.47;1735796;81;21070;-71
2021/10/06 11:07:24;;;;;;;5.77;3.43;;;;;;;15.43;41.33;102350.49;1733801;81;21164;-69
2021/10/06 11:10:14;;;;;;;6.93;3.57;;;;;;;15.32;41.71;102349.22;1735881;82;21116;-69
2021/10/06 11:12:46;;;;;;;6.58;3.35;;;;;;;15.20;42.06;102351.47;1699734;82;21066;-72
2021/10/06 11:15:18;;;;;;;4.90;3.13;;;;;;;15.08;41.61;102341.30;1732612;81;21086;-71
2021/10/06 11:18:08;;;;;;;5.50;3.00;;;;;;;15.08;41.61;102341.30;1699471;82;21058;-71
2021/10/06 11:20:59;;;;;;;4.97;3.30;;;;;;;14.90;41.50;102347.70;1694580;82;21491;-70
2021/10/06 11:23:36;;;;;;;5.73;3.50;;;;;;;14.81;41.77;102345.14;1696189;82;21648;-71
2021/10/06 11:26:09;;;;;;;4.90;3.00;;;;;;;14.74;41.46;102339.06;1719303;82;21587;-70
2021/10/06 11:28:45;;;;;;;7.50;3.20;;;;;;;14.56;40.79;102337.41;1722287;81;21513;-71
2021/10/06 11:31:13;;;;;;;5.47;3.27;;;;;;;14.33;41.32;102333.42;1720946;81;21733;-71
2021/10/06 11:33:40;;;;;;;3.87;2.80;;;;;;;14.21;40.98;102332.09;1724337;81;21750;-72
2021/10/06 11:36:22;;;;;;;4.97;3.20;;;;;;;14.14;40.60;102336.27;1722639;81;22255;-71